sensor_id;sensor_type;location;lat;lon;timestamp;P1;durP1;ratioP1;P2;durP2;ratioP2
70414;SDS011;57837;52.064;113.478;2022-08-25T16:09:08;6.90;;;2.88;;
70414;SDS011;57837;52.064;113.478;2022-08-25T16:12:11;6.30;;;2.10;;
70414;SDS011;57837;52.064;113.478;2022-08-25T16:15:15;7.10;;;2.63;;
70414;SDS011;57837;52.064;113.478;2022-08-25T16:18:24;9.95;;;2.60;;
70414;SDS011;57837;52.064;113.478;2022-08-25T16:21:29;4.03;;;2.05;;
70414;SDS011;57837;52.064;113.478;2022-08-25T16:24:43;5.28;;;1.70;;
70414;SDS011;57837;52.064;113.478;2022-08-25T16:27:47;4.53;;;1.73;;
70414;SDS011;57837;52.064;113.478;2022-08-25T16:30:50;8.47;;;2.13;;
70414;SDS011;57837;52.064;113.478;2022-08-25T16:33:54;6.82;;;2.13;;
70414;SDS011;57837;52.064;113.478;2022-08-25T16:36:59;5.68;;;2.00;;
70414;SDS011;57837;52.064;113.478;2022-08-25T16:40:02;5.82;;;2.20;;
70414;SDS011;57837;52.064;113.478;2022-08-25T16:43:07;7.87;;;2.40;;
70414;SDS011;57837;52.064;113.478;2022-08-25T16:46:12;7.43;;;2.10;;
70414;SDS011;57837;52.064;113.478;2022-08-25T16:49:17;6.68;;;2.28;;
70414;SDS011;57837;52.064;113.478;2022-08-25T16:52:25;6.70;;;2.00;;
70414;SDS011;57837;52.064;113.478;2022-08-25T16:55:58;4.32;;;1.50;;
70414;SDS011;57837;52.064;113.478;2022-08-25T16:59:03;6.20;;;2.23;;
70414;SDS011;57837;52.064;113.478;2022-08-25T17:02:08;5.07;;;1.80;;
70414;SDS011;57837;52.064;113.478;2022-08-25T17:05:11;4.18;;;2.00;;
70414;SDS011;57837;52.064;113.478;2022-08-25T17:08:14;4.18;;;1.90;;
70414;SDS011;57837;52.064;113.478;2022-08-25T17:11:33;3.90;;;1.65;;
70414;SDS011;57837;52.064;113.478;2022-08-25T17:14:37;6.27;;;1.80;;
70414;SDS011;57837;52.064;113.478;2022-08-25T17:17:41;5.20;;;1.37;;
70414;SDS011;57837;52.064;113.478;2022-08-25T17:20:46;4.15;;;1.45;;
70414;SDS011;57837;52.064;113.478;2022-08-25T17:23:52;6.85;;;1.65;;
70414;SDS011;57837;52.064;113.478;2022-08-25T17:26:57;2.72;;;1.45;;
70414;SDS011;57837;52.064;113.478;2022-08-25T17:30:03;4.40;;;1.97;;
70414;SDS011;57837;52.064;113.478;2022-08-25T17:33:07;5.60;;;1.87;;
70414;SDS011;57837;52.064;113.478;2022-08-25T17:36:11;6.13;;;2.03;;
70414;SDS011;57837;52.064;113.478;2022-08-25T17:39:19;4.13;;;1.67;;
70414;SDS011;57837;52.064;113.478;2022-08-25T17:42:23;4.38;;;1.90;;
70414;SDS011;57837;52.064;113.478;2022-08-25T17:45:31;4.73;;;1.80;;
70414;SDS011;57837;52.064;113.478;2022-08-25T17:48:36;7.23;;;2.20;;
70414;SDS011;57837;52.064;113.478;2022-08-25T17:51:44;4.40;;;1.77;;
70414;SDS011;57837;52.064;113.478;2022-08-25T17:54:48;4.60;;;2.08;;
70414;SDS011;57837;52.064;113.478;2022-08-25T17:57:57;3.60;;;1.75;;
70414;SDS011;57837;52.064;113.478;2022-08-25T18:01:01;4.73;;;1.53;;
70414;SDS011;57837;52.064;113.478;2022-08-25T18:04:05;4.73;;;1.53;;
70414;SDS011;57837;52.064;113.478;2022-08-25T18:07:18;3.03;;;1.52;;
70414;SDS011;57837;52.064;113.478;2022-08-25T18:10:22;4.70;;;1.48;;
70414;SDS011;57837;52.064;113.478;2022-08-25T18:13:25;2.53;;;1.00;;
70414;SDS011;57837;52.064;113.478;2022-08-25T18:16:30;5.77;;;1.33;;
70414;SDS011;57837;52.064;113.478;2022-08-25T18:19:34;3.13;;;1.00;;
70414;SDS011;57837;52.064;113.478;2022-08-25T18:22:40;2.70;;;0.95;;
70414;SDS011;57837;52.064;113.478;2022-08-25T18:25:45;2.92;;;0.93;;
70414;SDS011;57837;52.064;113.478;2022-08-25T18:28:51;3.95;;;0.90;;
70414;SDS011;57837;52.064;113.478;2022-08-25T18:31:54;1.80;;;0.90;;
70414;SDS011;57837;52.064;113.478;2022-08-25T18:35:01;4.17;;;1.10;;
70414;SDS011;57837;52.064;113.478;2022-08-25T18:38:06;3.28;;;1.00;;
70414;SDS011;57837;52.064;113.478;2022-08-25T18:41:33;2.33;;;0.90;;
70414;SDS011;57837;52.064;113.478;2022-08-25T18:44:38;5.40;;;0.90;;
70414;SDS011;57837;52.064;113.478;2022-08-25T18:47:48;4.00;;;1.27;;
70414;SDS011;57837;52.064;113.478;2022-08-25T18:50:58;2.27;;;0.90;;
70414;SDS011;57837;52.064;113.478;2022-08-25T18:54:03;3.28;;;1.17;;
70414;SDS011;57837;52.064;113.478;2022-08-25T18:57:06;2.75;;;1.00;;
70414;SDS011;57837;52.064;113.478;2022-08-25T19:00:11;3.55;;;0.90;;
70414;SDS011;57837;52.064;113.478;2022-08-25T19:03:18;1.97;;;1.00;;
70414;SDS011;57837;52.064;113.478;2022-08-25T19:06:24;2.07;;;1.00;;
70414;SDS011;57837;52.064;113.478;2022-08-25T19:09:28;1.60;;;0.90;;
70414;SDS011;57837;52.064;113.478;2022-08-25T19:12:32;2.63;;;0.80;;
70414;SDS011;57837;52.064;113.478;2022-08-25T19:15:38;2.85;;;0.90;;
70414;SDS011;57837;52.064;113.478;2022-08-25T19:18:44;6.17;;;1.00;;
70414;SDS011;57837;52.064;113.478;2022-08-25T19:21:48;2.93;;;0.70;;
70414;SDS011;57837;52.064;113.478;2022-08-25T19:24:51;3.05;;;0.77;;
70414;SDS011;57837;52.064;113.478;2022-08-25T19:27:55;1.95;;;0.75;;
70414;SDS011;57837;52.064;113.478;2022-08-25T19:31:01;1.98;;;0.70;;
70414;SDS011;57837;52.064;113.478;2022-08-25T19:34:08;2.33;;;0.67;;
70414;SDS011;57837;52.064;113.478;2022-08-25T19:37:15;1.97;;;0.80;;
70414;SDS011;57837;52.064;113.478;2022-08-25T19:40:20;1.17;;;0.70;;
70414;SDS011;57837;52.064;113.478;2022-08-25T19:43:24;3.30;;;0.82;;
70414;SDS011;57837;52.064;113.478;2022-08-25T19:46:32;3.42;;;0.98;;
70414;SDS011;57837;52.064;113.478;2022-08-25T19:49:39;2.90;;;0.87;;
70414;SDS011;57837;52.064;113.478;2022-08-25T19:52:43;2.40;;;1.00;;
70414;SDS011;57837;52.064;113.478;2022-08-25T19:55:50;3.63;;;0.90;;
70414;SDS011;57837;52.064;113.478;2022-08-25T19:58:54;3.85;;;0.90;;
70414;SDS011;57837;52.064;113.478;2022-08-25T20:01:58;4.45;;;0.90;;
70414;SDS011;57837;52.064;113.478;2022-08-25T20:05:02;2.37;;;0.70;;
70414;SDS011;57837;52.064;113.478;2022-08-25T20:08:07;2.90;;;1.03;;
70414;SDS011;57837;52.064;113.478;2022-08-25T20:11:10;1.80;;;0.80;;
70414;SDS011;57837;52.064;113.478;2022-08-25T20:14:14;4.07;;;1.00;;
70414;SDS011;57837;52.064;113.478;2022-08-25T20:17:18;2.47;;;0.80;;
70414;SDS011;57837;52.064;113.478;2022-08-25T20:20:27;1.80;;;0.80;;
70414;SDS011;57837;52.064;113.478;2022-08-25T20:23:35;2.70;;;0.80;;
70414;SDS011;57837;52.064;113.478;2022-08-25T20:26:56;1.38;;;0.52;;
70414;SDS011;57837;52.064;113.478;2022-08-25T20:30:02;1.70;;;0.70;;
70414;SDS011;57837;52.064;113.478;2022-08-25T20:33:07;1.70;;;0.50;;
70414;SDS011;57837;52.064;113.478;2022-08-25T20:36:13;1.13;;;0.40;;
70414;SDS011;57837;52.064;113.478;2022-08-25T20:39:17;0.97;;;0.57;;
70414;SDS011;57837;52.064;113.478;2022-08-25T20:42:23;0.90;;;0.50;;
70414;SDS011;57837;52.064;113.478;2022-08-25T20:45:27;5.65;;;1.15;;
70414;SDS011;57837;52.064;113.478;2022-08-25T20:48:31;3.33;;;0.60;;
70414;SDS011;57837;52.064;113.478;2022-08-25T20:51:35;2.00;;;0.67;;
70414;SDS011;57837;52.064;113.478;2022-08-25T20:54:38;0.80;;;0.40;;
70414;SDS011;57837;52.064;113.478;2022-08-25T20:57:47;2.50;;;0.70;;
70414;SDS011;57837;52.064;113.478;2022-08-25T21:00:51;1.85;;;0.90;;
70414;SDS011;57837;52.064;113.478;2022-08-25T21:03:54;3.17;;;0.68;;
70414;SDS011;57837;52.064;113.478;2022-08-25T21:06:57;1.90;;;0.80;;
70414;SDS011;57837;52.064;113.478;2022-08-25T21:10:06;2.20;;;0.70;;
70414;SDS011;57837;52.064;113.478;2022-08-25T21:13:12;2.72;;;0.90;;
70414;SDS011;57837;52.064;113.478;2022-08-25T21:16:15;1.30;;;0.70;;
70414;SDS011;57837;52.064;113.478;2022-08-25T21:19:21;2.13;;;0.80;;
70414;SDS011;57837;52.064;113.478;2022-08-25T21:22:32;1.90;;;0.80;;
70414;SDS011;57837;52.064;113.478;2022-08-25T21:25:39;2.60;;;0.73;;
70414;SDS011;57837;52.064;113.478;2022-08-25T21:28:43;4.18;;;0.68;;
70414;SDS011;57837;52.064;113.478;2022-08-25T21:31:49;2.03;;;0.60;;
70414;SDS011;57837;52.064;113.478;2022-08-25T21:34:53;2.30;;;0.60;;
70414;SDS011;57837;52.064;113.478;2022-08-25T21:37:57;2.47;;;0.60;;
70414;SDS011;57837;52.064;113.478;2022-08-25T21:41:07;3.60;;;0.90;;
70414;SDS011;57837;52.064;113.478;2022-08-25T21:44:12;4.18;;;1.00;;
70414;SDS011;57837;52.064;113.478;2022-08-25T21:47:18;2.88;;;1.10;;
70414;SDS011;57837;52.064;113.478;2022-08-25T21:50:22;2.60;;;1.40;;
70414;SDS011;57837;52.064;113.478;2022-08-25T21:53:26;1.20;;;0.70;;
70414;SDS011;57837;52.064;113.478;2022-08-25T21:56:30;2.53;;;0.80;;
70414;SDS011;57837;52.064;113.478;2022-08-25T21:59:35;4.97;;;1.42;;
70414;SDS011;57837;52.064;113.478;2022-08-25T22:02:44;1.58;;;0.65;;
70414;SDS011;57837;52.064;113.478;2022-08-25T22:05:49;5.22;;;0.93;;
70414;SDS011;57837;52.064;113.478;2022-08-25T22:08:52;3.07;;;1.87;;
70414;SDS011;57837;52.064;113.478;2022-08-25T22:11:57;5.10;;;1.77;;
70414;SDS011;57837;52.064;113.478;2022-08-25T22:15:02;9.45;;;1.20;;
70414;SDS011;57837;52.064;113.478;2022-08-25T22:18:07;6.10;;;1.30;;
70414;SDS011;57837;52.064;113.478;2022-08-25T22:21:11;9.07;;;1.42;;
70414;SDS011;57837;52.064;113.478;2022-08-25T22:24:15;2.70;;;1.20;;
70414;SDS011;57837;52.064;113.478;2022-08-25T22:27:20;7.40;;;1.90;;
70414;SDS011;57837;52.064;113.478;2022-08-25T22:30:24;8.00;;;2.80;;
70414;SDS011;57837;52.064;113.478;2022-08-25T22:33:30;13.52;;;3.53;;
70414;SDS011;57837;52.064;113.478;2022-08-25T22:36:35;9.00;;;4.28;;
70414;SDS011;57837;52.064;113.478;2022-08-25T22:39:41;9.03;;;3.50;;
70414;SDS011;57837;52.064;113.478;2022-08-25T22:42:44;12.93;;;3.77;;
70414;SDS011;57837;52.064;113.478;2022-08-25T22:45:57;6.35;;;2.40;;
70414;SDS011;57837;52.064;113.478;2022-08-25T22:49:02;5.35;;;2.45;;
70414;SDS011;57837;52.064;113.478;2022-08-25T22:52:09;6.82;;;2.40;;
70414;SDS011;57837;52.064;113.478;2022-08-25T22:55:14;8.97;;;1.97;;
70414;SDS011;57837;52.064;113.478;2022-08-25T22:58:17;8.33;;;2.80;;
70414;SDS011;57837;52.064;113.478;2022-08-25T23:01:20;10.50;;;3.78;;
70414;SDS011;57837;52.064;113.478;2022-08-25T23:04:23;10.25;;;3.45;;
70414;SDS011;57837;52.064;113.478;2022-08-25T23:07:27;3.50;;;2.10;;
70414;SDS011;57837;52.064;113.478;2022-08-25T23:10:31;5.27;;;1.70;;
70414;SDS011;57837;52.064;113.478;2022-08-25T23:13:35;3.73;;;2.23;;
70414;SDS011;57837;52.064;113.478;2022-08-25T23:16:43;4.20;;;1.48;;
70414;SDS011;57837;52.064;113.478;2022-08-25T23:19:46;6.50;;;1.33;;
70414;SDS011;57837;52.064;113.478;2022-08-25T23:22:49;3.35;;;1.60;;
70414;SDS011;57837;52.064;113.478;2022-08-25T23:25:54;5.77;;;1.57;;
70414;SDS011;57837;52.064;113.478;2022-08-25T23:28:58;7.07;;;1.77;;
